createdAt,value
2018-09-10T00:01:25.076Z,1.27
2018-09-10T00:04:28.203Z,4.23
2018-09-10T00:07:31.424Z,1.23
2018-09-10T00:10:34.728Z,1.93
2018-09-10T00:13:37.926Z,2.57
2018-09-10T00:16:41.107Z,1.13
2018-09-10T00:19:44.272Z,0.80
2018-09-10T00:22:47.688Z,1.50
2018-09-10T00:25:50.843Z,0.63
2018-09-10T00:28:54.002Z,0.90
2018-09-10T00:31:57.118Z,2.00
2018-09-10T00:35:00.232Z,0.70
2018-09-10T00:38:03.488Z,1.63
2018-09-10T00:41:06.633Z,0.83
2018-09-10T00:44:10.054Z,1.63
2018-09-10T00:47:13.358Z,1.43
2018-09-10T00:50:16.510Z,2.93
2018-09-10T00:53:19.715Z,1.50
2018-09-10T00:56:22.898Z,1.13
2018-09-10T00:59:26.260Z,1.73
2018-09-10T01:02:29.416Z,1.77
2018-09-10T01:05:32.631Z,0.80
2018-09-10T01:08:35.793Z,1.37
2018-09-10T01:11:39.413Z,2.60
2018-09-10T01:14:42.760Z,2.50
2018-09-10T01:17:46.027Z,1.20
2018-09-10T01:20:49.265Z,0.93
2018-09-10T01:23:52.560Z,3.07
2018-09-10T01:26:55.794Z,1.50
2018-09-10T01:29:59.104Z,2.07
2018-09-10T01:33:02.392Z,0.80
2018-09-10T01:36:05.699Z,0.80
2018-09-10T01:39:09.438Z,2.63
2018-09-10T01:42:12.618Z,2.57
2018-09-10T01:45:16.027Z,1.13
2018-09-10T01:48:19.506Z,2.10
2018-09-10T01:51:22.692Z,2.40
2018-09-10T01:54:25.869Z,1.53
2018-09-10T01:57:29.090Z,2.67
2018-09-10T02:00:32.229Z,2.20
2018-09-10T02:03:35.449Z,1.43
2018-09-10T02:06:38.734Z,0.87
2018-09-10T02:09:42.100Z,1.63
2018-09-10T02:12:45.363Z,2.03
2018-09-10T02:15:48.590Z,1.33
2018-09-10T02:18:51.852Z,0.80
2018-09-10T02:21:56.040Z,2.70
2018-09-10T02:24:59.202Z,2.40
2018-09-10T02:28:02.390Z,1.50
2018-09-10T02:31:05.804Z,1.10
2018-09-10T02:34:09.204Z,0.90
2018-09-10T02:37:12.443Z,1.80
2018-09-10T02:40:15.655Z,1.50
2018-09-10T02:43:18.856Z,1.13
2018-09-10T02:46:21.986Z,2.27
2018-09-10T02:49:25.261Z,1.10
2018-09-10T02:52:28.451Z,2.13
2018-09-10T02:55:31.736Z,1.20
2018-09-10T02:58:35.039Z,1.20
2018-09-10T03:01:39.221Z,1.03
2018-09-10T03:04:44.975Z,1.40
2018-09-10T03:07:48.198Z,5.40
2018-09-10T03:10:51.429Z,4.30
2018-09-10T03:13:54.639Z,1.80
2018-09-10T03:16:57.859Z,1.17
2018-09-10T03:20:01.033Z,1.53
2018-09-10T03:23:04.227Z,3.20
2018-09-10T03:26:07.464Z,2.70
2018-09-10T03:29:10.744Z,1.53
2018-09-10T03:32:13.856Z,1.97
2018-09-10T03:35:17.078Z,1.27
2018-09-10T03:38:20.242Z,1.73
2018-09-10T03:41:23.435Z,1.07
2018-09-10T03:44:26.715Z,2.33
2018-09-10T03:47:29.999Z,2.30
2018-09-10T03:50:33.359Z,1.33
2018-09-10T03:53:36.848Z,1.83
2018-09-10T03:56:40.208Z,1.00
2018-09-10T03:59:43.572Z,1.90
2018-09-10T04:02:46.816Z,1.20
2018-09-10T04:05:50.138Z,1.57
2018-09-10T04:08:53.455Z,3.03
2018-09-10T04:12:59.790Z,1.30
2018-09-10T04:16:04.115Z,2.83
2018-09-10T04:19:07.587Z,1.70
2018-09-10T04:22:42.131Z,1.90
2018-09-10T04:25:45.388Z,1.53
2018-09-10T04:28:48.736Z,1.53
2018-09-10T04:31:51.927Z,1.00
2018-09-10T04:34:57.104Z,1.13
2018-09-10T04:38:03.417Z,2.97
2018-09-10T04:41:06.644Z,2.07
2018-09-10T04:44:10.850Z,1.83
2018-09-10T04:47:14.004Z,2.10
2018-09-10T04:50:18.662Z,0.83
2018-09-10T04:53:25.822Z,5.90
2018-09-10T04:56:29.173Z,1.70
2018-09-10T04:59:32.373Z,2.30
2018-09-10T05:02:35.675Z,2.53
2018-09-10T05:05:38.900Z,1.63
2018-09-10T05:08:41.991Z,1.70
2018-09-10T05:11:45.379Z,1.40
2018-09-10T05:14:48.814Z,2.03
2018-09-10T05:17:52.058Z,3.43
2018-09-10T05:20:55.320Z,1.30
2018-09-10T05:23:58.582Z,3.10
2018-09-10T05:27:01.819Z,1.63
2018-09-10T05:30:06.101Z,6.07
2018-09-10T05:33:09.368Z,5.10
2018-09-10T05:36:14.719Z,4.10
2018-09-10T05:39:17.963Z,3.17
2018-09-10T05:42:21.170Z,2.27
2018-09-10T05:45:24.532Z,1.97
2018-09-10T05:48:27.781Z,2.27
2018-09-10T05:54:41.771Z,3.50
2018-09-10T05:57:45.042Z,1.37
2018-09-10T06:00:48.246Z,2.97
2018-09-10T06:03:53.555Z,2.27
2018-09-10T06:11:04.792Z,6.07
2018-09-10T06:14:08.007Z,4.03
2018-09-10T06:17:41.987Z,2.20
2018-09-10T06:20:46.210Z,1.60
2018-09-10T06:23:51.432Z,2.03
2018-09-10T06:26:54.782Z,1.43
2018-09-10T06:29:58.033Z,2.13
2018-09-10T06:33:03.287Z,4.43
2018-09-10T06:36:07.554Z,3.73
2018-09-10T06:39:12.321Z,6.30
2018-09-10T06:42:15.733Z,12.23
2018-09-10T06:45:18.945Z,8.40
2018-09-10T06:48:22.305Z,10.30
2018-09-10T06:51:25.610Z,6.13
2018-09-10T06:54:29.867Z,8.23
2018-09-10T06:57:34.114Z,14.23
2018-09-10T07:00:39.302Z,9.63
2018-09-10T07:03:42.429Z,8.27
2018-09-10T07:06:46.051Z,11.10
2018-09-10T07:09:50.334Z,10.37
2018-09-10T07:12:54.564Z,9.30
2018-09-10T07:15:57.842Z,5.57
2018-09-10T07:19:01.062Z,8.27
2018-09-10T07:22:04.478Z,9.87
2018-09-10T07:25:08.741Z,8.60
2018-09-10T07:28:12.211Z,8.27
2018-09-10T07:31:15.470Z,6.43
2018-09-10T07:34:18.756Z,9.63
2018-09-10T07:37:22.021Z,7.30
2018-09-10T07:40:25.256Z,1.97
2018-09-10T07:43:28.488Z,3.17
2018-09-10T07:46:31.712Z,3.93
2018-09-10T07:49:35.039Z,5.00
2018-09-10T07:52:38.308Z,3.00
2018-09-10T07:55:41.521Z,1.70
2018-09-10T07:58:44.800Z,3.00
2018-09-10T08:01:47.997Z,1.10
2018-09-10T08:04:51.190Z,5.00
2018-09-10T08:07:54.384Z,1.37
2018-09-10T08:10:57.498Z,0.93
2018-09-10T08:14:00.698Z,2.37
2018-09-10T08:17:03.992Z,1.17
2018-09-10T08:20:07.476Z,1.20
2018-09-10T08:23:11.707Z,3.13
2018-09-10T08:26:15.067Z,2.13
2018-09-10T08:29:18.389Z,1.60
2018-09-10T08:32:21.669Z,2.10
2018-09-10T08:35:24.951Z,2.63
2018-09-10T08:38:28.120Z,2.50
2018-09-10T08:41:31.337Z,1.03
2018-09-10T08:44:34.646Z,2.13
2018-09-10T08:47:38.101Z,2.93
2018-09-10T08:50:41.356Z,3.73
2018-09-10T08:53:44.783Z,4.83
2018-09-10T08:56:48.093Z,5.47
2018-09-10T08:59:51.211Z,5.03
2018-09-10T09:02:54.575Z,2.40
2018-09-10T09:05:57.742Z,4.13
2018-09-10T09:09:01.142Z,2.83
2018-09-10T09:12:04.387Z,2.73
2018-09-10T09:15:07.706Z,2.70
2018-09-10T09:18:11.223Z,5.70
2018-09-10T09:21:14.663Z,5.37
2018-09-10T09:24:17.956Z,2.73
2018-09-10T09:27:21.351Z,0.87
2018-09-10T09:30:24.669Z,6.07
2018-09-10T09:33:27.980Z,1.00
2018-09-10T09:36:36.811Z,1.40
2018-09-10T09:39:45.816Z,2.87
2018-09-10T09:42:54.770Z,4.20
2018-09-10T09:46:03.522Z,2.13
2018-09-10T09:49:06.783Z,2.07
2018-09-10T09:52:11.255Z,2.43
2018-09-10T09:55:14.531Z,4.93
2018-09-10T09:58:18.850Z,3.97
2018-09-10T10:01:27.794Z,1.67
2018-09-10T10:04:31.314Z,2.67
2018-09-10T10:07:34.570Z,1.63
2018-09-10T10:10:38.110Z,1.50
2018-09-10T10:13:41.392Z,2.67
2018-09-10T10:16:44.648Z,2.20
2018-09-10T10:19:48.379Z,1.23
2018-09-10T10:22:51.700Z,0.80
2018-09-10T10:25:54.946Z,2.00
2018-09-10T10:28:58.160Z,1.37
2018-09-10T10:32:01.446Z,3.53
2018-09-10T10:35:05.023Z,2.63
2018-09-10T10:38:08.195Z,2.73
2018-09-10T10:41:11.425Z,1.97
2018-09-10T10:44:45.467Z,1.53
2018-09-10T10:47:48.608Z,0.70
2018-09-10T10:50:51.833Z,3.03
2018-09-10T10:53:55.071Z,2.10
2018-09-10T10:56:58.278Z,3.13
2018-09-10T11:00:01.901Z,3.50
2018-09-10T11:03:05.249Z,0.80
2018-09-10T11:06:08.598Z,0.83
2018-09-10T11:09:11.871Z,1.63
2018-09-10T11:12:15.230Z,1.53
2018-09-10T11:15:18.431Z,1.83
2018-09-10T11:18:21.720Z,1.47
2018-09-10T11:21:25.275Z,5.63
2018-09-10T11:24:28.543Z,2.17
2018-09-10T11:27:31.871Z,2.93
2018-09-10T11:30:35.126Z,1.33
2018-09-10T11:33:38.331Z,3.80
2018-09-10T11:36:41.344Z,2.63
2018-09-10T11:39:44.557Z,4.27
2018-09-10T11:42:47.693Z,2.27
2018-09-10T11:45:50.841Z,2.20
2018-09-10T11:48:54.144Z,3.47
2018-09-10T11:51:57.282Z,2.60
2018-09-10T11:55:00.457Z,2.10
2018-09-10T11:58:03.592Z,10.47
2018-09-10T12:01:06.709Z,11.63
2018-09-10T12:04:09.960Z,4.33
2018-09-10T12:07:13.778Z,9.70
2018-09-10T12:10:16.992Z,3.70
2018-09-10T12:13:20.514Z,1.93
2018-09-10T12:16:23.818Z,4.57
2018-09-10T12:19:27.022Z,5.30
2018-09-10T12:22:30.326Z,1.23
2018-09-10T12:25:33.527Z,2.27
2018-09-10T12:28:36.684Z,3.20
2018-09-10T12:31:39.810Z,2.93
2018-09-10T12:35:45.984Z,1.53
2018-09-10T12:38:49.204Z,2.67
2018-09-10T12:41:52.309Z,2.00
2018-09-10T12:44:55.500Z,2.73
2018-09-10T12:47:58.685Z,1.60
2018-09-10T12:51:01.926Z,1.87
2018-09-10T12:54:05.057Z,2.00
2018-09-10T12:57:08.372Z,1.93
2018-09-10T13:00:11.637Z,3.07
2018-09-10T13:03:14.901Z,4.77
2018-09-10T13:06:18.052Z,3.37
2018-09-10T13:09:21.215Z,1.80
2018-09-10T13:12:24.479Z,1.90
2018-09-10T13:15:27.754Z,5.67
2018-09-10T13:18:30.991Z,3.00
2018-09-10T13:21:34.463Z,4.07
2018-09-10T13:24:37.587Z,2.97
2018-09-10T13:27:40.724Z,3.03
2018-09-10T13:30:43.804Z,3.47
2018-09-10T13:33:47.000Z,3.30
2018-09-10T13:36:50.131Z,4.73
2018-09-10T13:39:53.441Z,6.67
2018-09-10T13:42:56.617Z,3.80
2018-09-10T13:45:59.700Z,3.73
2018-09-10T13:49:02.965Z,3.43
2018-09-10T13:52:06.160Z,2.63
2018-09-10T13:55:09.220Z,3.67
2018-09-10T13:58:43.461Z,3.77
2018-09-10T14:01:46.725Z,12.73
2018-09-10T14:04:49.944Z,1.90
2018-09-10T14:07:53.118Z,1.70
2018-09-10T14:10:56.261Z,6.10
2018-09-10T14:13:59.636Z,3.67
2018-09-10T14:17:02.791Z,3.10
2018-09-10T14:20:06.000Z,4.47
2018-09-10T14:23:10.058Z,2.47
2018-09-10T14:26:13.302Z,10.90
2018-09-10T14:29:16.791Z,18.27
2018-09-10T14:32:20.346Z,11.27
2018-09-10T14:35:23.661Z,4.93
2018-09-10T14:38:26.789Z,2.53
2018-09-10T14:41:29.927Z,2.83
2018-09-10T14:44:33.181Z,5.90
2018-09-10T14:47:36.235Z,3.30
2018-09-10T14:50:39.309Z,3.93
2018-09-10T14:53:42.598Z,3.03
2018-09-10T14:56:45.796Z,3.13
2018-09-10T14:59:48.901Z,2.83
2018-09-10T15:02:52.226Z,5.97
2018-09-10T15:05:55.622Z,5.80
2018-09-10T15:08:58.857Z,3.30
2018-09-10T15:12:01.987Z,3.40
2018-09-10T15:15:05.162Z,3.97
2018-09-10T15:18:08.338Z,2.03
2018-09-10T15:21:11.543Z,5.27
2018-09-10T15:24:14.713Z,2.63
2018-09-10T15:27:17.944Z,4.53
2018-09-10T15:30:21.082Z,2.67
2018-09-10T15:33:24.341Z,4.27
2018-09-10T15:36:27.512Z,10.70
2018-09-10T15:39:30.721Z,3.67
2018-09-10T15:42:33.905Z,3.40
2018-09-10T15:45:39.134Z,3.87
2018-09-10T15:48:42.226Z,4.03
2018-09-10T15:51:45.491Z,5.53
2018-09-10T15:54:48.703Z,3.43
2018-09-10T15:57:51.905Z,11.83
2018-09-10T16:00:55.096Z,9.47
2018-09-10T16:03:58.303Z,4.13
2018-09-10T16:07:01.457Z,6.10
2018-09-10T16:10:04.901Z,4.07
2018-09-10T16:13:08.129Z,8.07
2018-09-10T16:16:12.216Z,2.03
2018-09-10T16:19:15.392Z,2.27
2018-09-10T16:22:19.022Z,6.20
2018-09-10T16:25:22.394Z,3.57
2018-09-10T16:28:26.508Z,6.50
2018-09-10T16:31:29.990Z,3.37
2018-09-10T16:34:33.251Z,3.37
2018-09-10T16:37:36.809Z,6.50
2018-09-10T16:40:40.006Z,6.50
2018-09-10T16:43:43.174Z,4.37
2018-09-10T16:46:46.437Z,4.30
2018-09-10T16:49:49.941Z,3.77
2018-09-10T16:52:53.222Z,3.70
2018-09-10T16:55:57.338Z,4.30
2018-09-10T16:59:01.057Z,9.77
2018-09-10T17:02:04.473Z,5.23
2018-09-10T17:05:07.709Z,4.10
2018-09-10T17:08:10.852Z,4.67
2018-09-10T17:11:14.127Z,11.17
2018-09-10T17:14:17.534Z,6.83
2018-09-10T17:17:20.817Z,6.57
2018-09-10T17:20:24.021Z,4.33
2018-09-10T17:23:27.285Z,7.53
2018-09-10T17:26:30.703Z,5.20
2018-09-10T17:29:33.757Z,9.07
2018-09-10T17:32:38.317Z,8.70
2018-09-10T17:35:41.450Z,9.67
2018-09-10T17:38:46.780Z,8.13
2018-09-10T17:41:52.174Z,5.47
2018-09-10T17:44:55.366Z,6.57
2018-09-10T17:47:58.686Z,5.47
2018-09-10T17:51:03.271Z,4.10
2018-09-10T17:54:06.698Z,7.40
2018-09-10T17:57:09.765Z,12.10
2018-09-10T18:00:15.026Z,9.53
2018-09-10T18:03:18.249Z,10.53
2018-09-10T18:06:22.066Z,9.60
2018-09-10T18:09:25.133Z,12.73
2018-09-10T18:12:30.837Z,8.63
2018-09-10T18:15:34.033Z,6.13
2018-09-10T18:18:37.213Z,6.93
2018-09-10T18:21:40.373Z,5.93
2018-09-10T18:24:46.716Z,13.93
2018-09-10T18:27:50.304Z,6.40
2018-09-10T18:30:54.449Z,5.87
2018-09-10T18:33:57.582Z,7.13
2018-09-10T18:37:00.707Z,8.67
2018-09-10T18:40:04.094Z,6.87
2018-09-10T18:43:07.470Z,8.07
2018-09-10T18:49:46.023Z,8.60
2018-09-10T18:52:49.274Z,11.47
2018-09-10T18:55:53.823Z,6.47
2018-09-10T18:58:59.937Z,8.70
2018-09-10T19:02:03.185Z,6.43
2018-09-10T19:05:06.551Z,7.33
2018-09-10T19:08:09.842Z,6.90
2018-09-10T19:11:13.093Z,6.37
2018-09-10T19:14:16.368Z,7.17
2018-09-10T19:17:19.767Z,6.13
2018-09-10T19:20:22.915Z,7.23
2018-09-10T19:23:26.089Z,12.53
2018-09-10T19:26:29.351Z,6.40
2018-09-10T19:29:32.598Z,9.97
2018-09-10T19:32:35.733Z,4.50
2018-09-10T19:35:39.019Z,4.23
2018-09-10T19:38:42.310Z,8.07
2018-09-10T19:41:45.614Z,11.33
2018-09-10T19:44:48.931Z,5.90
2018-09-10T19:47:52.039Z,4.73
2018-09-10T19:50:55.347Z,6.57
2018-09-10T19:53:58.598Z,8.90
2018-09-10T19:57:01.902Z,7.73
2018-09-10T20:00:05.291Z,8.03
2018-09-10T20:03:08.499Z,7.60
2018-09-10T20:06:11.800Z,5.27
2018-09-10T20:09:15.053Z,6.53
2018-09-10T20:12:18.289Z,8.90
2018-09-10T20:15:21.627Z,6.63
2018-09-10T20:18:24.754Z,7.37
2018-09-10T20:21:27.940Z,8.70
2018-09-10T20:24:31.304Z,6.30
2018-09-10T20:27:34.448Z,5.90
2018-09-10T20:30:37.715Z,5.47
2018-09-10T20:34:12.726Z,7.43
2018-09-10T20:37:15.889Z,5.37
2018-09-10T20:40:19.090Z,7.20
2018-09-10T20:43:22.295Z,9.43
2018-09-10T20:46:25.483Z,5.20
2018-09-10T20:49:29.084Z,7.13
2018-09-10T20:52:32.385Z,7.07
2018-09-10T20:55:35.673Z,6.23
2018-09-10T20:58:38.799Z,6.40
2018-09-10T21:01:42.050Z,6.70
2018-09-10T21:04:45.259Z,9.80
2018-09-10T21:07:48.360Z,9.77
2018-09-10T21:10:51.545Z,4.97
2018-09-10T21:13:54.945Z,8.40
2018-09-10T21:16:58.174Z,6.70
2018-09-10T21:20:01.545Z,11.43
2018-09-10T21:23:04.957Z,5.97
2018-09-10T21:26:08.219Z,7.97
2018-09-10T21:29:11.388Z,8.20
2018-09-10T21:32:14.549Z,7.93
2018-09-10T21:35:17.764Z,6.10
2018-09-10T21:38:20.991Z,5.87
2018-09-10T21:41:24.220Z,5.93
2018-09-10T21:44:27.365Z,5.03
2018-09-10T21:47:31.614Z,5.17
2018-09-10T21:50:34.833Z,4.63
2018-09-10T21:53:39.200Z,6.83
2018-09-10T21:56:42.343Z,7.07
2018-09-10T21:59:45.482Z,4.30
2018-09-10T22:02:48.553Z,7.17
2018-09-10T22:05:51.982Z,12.40
2018-09-10T22:08:55.207Z,6.60
2018-09-10T22:12:01.322Z,5.73
2018-09-10T22:15:04.620Z,7.70
2018-09-10T22:18:07.766Z,7.27
2018-09-10T22:21:10.859Z,5.33
2018-09-10T22:24:14.949Z,6.97
2018-09-10T22:27:18.108Z,8.40
2018-09-10T22:30:21.298Z,6.13
2018-09-10T22:33:24.404Z,4.97
2018-09-10T22:36:28.693Z,4.80
2018-09-10T22:39:31.840Z,4.37
2018-09-10T22:42:41.547Z,7.27
2018-09-10T22:45:44.672Z,6.07
2018-09-10T22:48:47.902Z,8.00
2018-09-10T22:51:52.749Z,5.63
2018-09-10T22:54:55.955Z,6.27
2018-09-10T22:58:02.399Z,7.30
2018-09-10T23:01:05.542Z,7.20
2018-09-10T23:04:09.849Z,7.37
2018-09-10T23:07:14.077Z,6.67
2018-09-10T23:10:17.266Z,4.83
2018-09-10T23:13:20.393Z,5.43
2018-09-10T23:16:23.560Z,7.30
2018-09-10T23:19:26.824Z,6.13
2018-09-10T23:22:29.918Z,6.60
2018-09-10T23:25:33.973Z,6.50
2018-09-10T23:28:39.276Z,4.43
2018-09-10T23:31:42.545Z,5.47
2018-09-10T23:34:45.718Z,3.77
2018-09-10T23:37:48.897Z,5.53
2018-09-10T23:40:52.024Z,5.50
2018-09-10T23:43:55.182Z,5.37
2018-09-10T23:46:58.366Z,8.37
2018-09-10T23:50:01.611Z,5.47
2018-09-10T23:53:08.207Z,7.07
2018-09-10T23:56:13.470Z,6.23
2018-09-10T23:59:18.881Z,9.67
